createdAt,value
2023-03-15T00:01:24.206Z,99.90
2023-03-15T00:04:09.964Z,99.90
2023-03-15T00:06:56.066Z,99.90
2023-03-15T00:09:43.178Z,99.90
2023-03-15T00:12:28.971Z,99.90
2023-03-15T00:15:15.584Z,99.90
2023-03-15T00:18:03.353Z,99.90
2023-03-15T00:20:49.680Z,99.90
2023-03-15T00:23:35.251Z,99.90
2023-03-15T00:26:22.814Z,99.90
2023-03-15T00:29:08.916Z,99.90
2023-03-15T00:31:54.958Z,99.90
2023-03-15T00:34:41.122Z,99.90
2023-03-15T00:37:27.170Z,99.90
2023-03-15T00:40:13.345Z,99.90
2023-03-15T00:43:00.793Z,99.90
2023-03-15T00:45:46.128Z,99.90
2023-03-15T00:48:32.025Z,99.90
2023-03-15T00:51:19.961Z,99.90
2023-03-15T00:54:06.002Z,99.90
2023-03-15T00:56:51.512Z,99.90
2023-03-15T00:59:38.433Z,99.90
2023-03-15T01:02:24.281Z,99.90
2023-03-15T01:05:10.726Z,99.90
2023-03-15T01:07:56.590Z,99.90
2023-03-15T01:10:42.891Z,99.90
2023-03-15T01:13:29.307Z,99.90
2023-03-15T01:16:16.413Z,99.90
2023-03-15T01:19:02.362Z,99.90
2023-03-15T01:21:48.177Z,99.90
2023-03-15T01:24:36.034Z,99.90
2023-03-15T01:27:21.589Z,99.90
2023-03-15T01:30:08.408Z,99.90
2023-03-15T01:32:56.721Z,99.90
2023-03-15T01:35:42.431Z,99.90
2023-03-15T01:38:28.891Z,99.90
2023-03-15T01:41:16.379Z,99.90
2023-03-15T01:44:02.195Z,99.90
2023-03-15T01:46:48.245Z,99.90
2023-03-15T01:49:44.164Z,99.90
2023-03-15T01:52:34.159Z,99.90
2023-03-15T01:55:20.957Z,99.90
2023-03-15T01:58:29.274Z,99.90
2023-03-15T02:01:16.538Z,99.90
2023-03-15T02:04:09.794Z,99.90
2023-03-15T02:07:03.648Z,99.90
2023-03-15T02:09:57.607Z,99.90
2023-03-15T02:12:47.020Z,99.90
2023-03-15T02:15:33.204Z,99.90
2023-03-15T02:18:22.648Z,99.90
2023-03-15T02:21:18.542Z,99.90
2023-03-15T02:24:19.648Z,99.90
2023-03-15T02:27:05.799Z,99.90
2023-03-15T02:29:53.431Z,99.90
2023-03-15T02:32:40.795Z,99.90
2023-03-15T02:35:29.110Z,99.90
2023-03-15T02:38:14.654Z,99.90
2023-03-15T02:41:02.572Z,99.90
2023-03-15T02:43:52.942Z,99.90
2023-03-15T02:46:40.679Z,99.90
2023-03-15T02:49:30.145Z,99.90
2023-03-15T02:52:16.020Z,99.90
2023-03-15T02:55:02.226Z,99.90
2023-03-15T02:57:48.672Z,99.90
2023-03-15T03:00:34.154Z,99.90
2023-03-15T03:03:21.509Z,99.90
2023-03-15T03:06:08.223Z,99.90
2023-03-15T03:08:55.997Z,99.90
2023-03-15T03:11:42.578Z,99.90
2023-03-15T03:14:28.582Z,99.90
2023-03-15T03:17:15.821Z,99.90
2023-03-15T03:20:04.901Z,99.90
2023-03-15T03:22:55.949Z,99.90
2023-03-15T03:25:41.868Z,99.90
2023-03-15T03:28:30.760Z,99.90
2023-03-15T03:31:18.951Z,99.90
2023-03-15T03:34:04.875Z,99.90
2023-03-15T03:36:52.010Z,99.90
2023-03-15T03:39:48.161Z,99.90
2023-03-15T03:42:35.536Z,99.90
2023-03-15T03:45:22.110Z,99.90
2023-03-15T03:48:11.899Z,99.90
2023-03-15T03:50:58.887Z,99.90
2023-03-15T03:53:46.623Z,99.90
2023-03-15T03:56:32.337Z,99.90
2023-03-15T03:59:18.137Z,99.90
2023-03-15T04:02:17.850Z,99.90
2023-03-15T04:05:13.914Z,99.90
2023-03-15T04:08:00.372Z,99.90
2023-03-15T04:10:55.607Z,99.90
2023-03-15T04:13:44.932Z,99.90
2023-03-15T04:16:30.932Z,99.90
2023-03-15T04:19:23.564Z,99.90
2023-03-15T04:22:15.227Z,99.90
2023-03-15T04:25:15.909Z,99.90
2023-03-15T04:28:20.014Z,99.90
2023-03-15T04:31:18.512Z,99.90
2023-03-15T04:34:18.016Z,99.90
2023-03-15T04:37:20.436Z,99.90
2023-03-15T04:40:28.060Z,99.90
2023-03-15T04:43:24.378Z,99.90
2023-03-15T04:46:34.025Z,99.90
2023-03-15T04:49:32.472Z,99.90
2023-03-15T04:52:36.902Z,99.90
2023-03-15T04:55:45.440Z,99.90
2023-03-15T04:58:42.520Z,99.90
2023-03-15T05:01:53.200Z,99.90
2023-03-15T05:04:48.471Z,99.90
2023-03-15T05:07:40.140Z,99.90
2023-03-15T05:10:38.570Z,99.90
2023-03-15T05:13:33.874Z,99.90
2023-03-15T05:16:44.117Z,99.90
2023-03-15T05:19:46.092Z,99.90
2023-03-15T05:23:01.109Z,99.90
2023-03-15T05:25:57.052Z,99.90
2023-03-15T05:29:02.277Z,99.90
2023-03-15T05:32:00.457Z,99.90
2023-03-15T05:34:54.788Z,99.90
2023-03-15T05:38:01.356Z,99.90
2023-03-15T05:41:06.507Z,99.90
2023-03-15T05:44:01.691Z,99.90
2023-03-15T05:47:17.038Z,99.90
2023-03-15T05:50:19.387Z,99.90
2023-03-15T05:53:34.865Z,99.90
2023-03-15T05:56:41.389Z,99.90
2023-03-15T05:59:54.735Z,99.90
2023-03-15T06:03:01.514Z,99.90
2023-03-15T06:05:59.883Z,99.90
2023-03-15T06:08:53.639Z,99.90
2023-03-15T06:11:39.805Z,99.90
2023-03-15T06:14:28.864Z,99.90
2023-03-15T06:17:18.258Z,99.90
2023-03-15T06:20:05.802Z,99.90
2023-03-15T06:22:52.987Z,99.90
2023-03-15T06:25:50.413Z,99.90
2023-03-15T06:28:40.030Z,99.90
2023-03-15T06:31:26.036Z,99.90
2023-03-15T06:34:23.453Z,99.90
2023-03-15T06:37:16.390Z,99.90
2023-03-15T06:40:08.507Z,99.90
2023-03-15T06:42:54.780Z,99.90
2023-03-15T06:45:41.202Z,99.90
2023-03-15T06:48:29.807Z,99.90
2023-03-15T06:51:16.602Z,99.90
2023-03-15T06:54:03.898Z,99.90
2023-03-15T06:56:52.326Z,99.90
2023-03-15T06:59:37.796Z,99.90
2023-03-15T07:02:23.671Z,99.90
2023-03-15T07:05:11.103Z,99.90
2023-03-15T07:07:56.862Z,99.90
2023-03-15T07:10:43.622Z,99.90
2023-03-15T07:13:29.530Z,99.90
2023-03-15T07:16:15.099Z,98.40
2023-03-15T07:19:01.474Z,96.70
2023-03-15T07:21:46.869Z,95.30
2023-03-15T07:24:32.724Z,93.30
2023-03-15T07:27:20.000Z,92.60
2023-03-15T07:30:08.251Z,91.90
2023-03-15T07:32:53.818Z,91.70
2023-03-15T07:35:40.168Z,92.40
2023-03-15T07:38:26.413Z,92.90
2023-03-15T07:41:12.196Z,94.00
2023-03-15T07:44:06.443Z,96.00
2023-03-15T07:46:52.278Z,95.70
2023-03-15T07:49:37.905Z,95.80
2023-03-15T07:52:23.388Z,96.50
2023-03-15T07:55:09.920Z,96.30
2023-03-15T07:57:55.331Z,96.20
2023-03-15T08:00:42.597Z,95.20
2023-03-15T08:03:28.284Z,96.20
2023-03-15T08:06:14.313Z,96.50
2023-03-15T08:09:01.620Z,95.50
2023-03-15T08:11:47.204Z,96.00
2023-03-15T08:14:33.505Z,95.10
2023-03-15T08:17:21.196Z,95.30
2023-03-15T08:20:11.470Z,93.70
2023-03-15T08:22:57.039Z,93.50
2023-03-15T08:25:42.974Z,92.70
2023-03-15T08:28:28.485Z,91.70
2023-03-15T08:31:14.303Z,91.60
2023-03-15T08:34:01.672Z,90.00
2023-03-15T08:36:47.901Z,86.90
2023-03-15T08:39:36.345Z,81.20
2023-03-15T08:42:22.329Z,79.30
2023-03-15T08:45:09.760Z,81.00
2023-03-15T08:47:56.854Z,80.30
2023-03-15T08:50:44.070Z,76.80
2023-03-15T08:53:31.236Z,76.50
2023-03-15T08:56:16.755Z,75.70
2023-03-15T08:59:02.442Z,74.60
2023-03-15T09:01:48.033Z,74.30
2023-03-15T09:04:33.892Z,71.10
2023-03-15T09:07:21.918Z,69.30
2023-03-15T09:10:08.289Z,69.70
2023-03-15T09:12:54.165Z,69.40
2023-03-15T09:15:39.818Z,67.90
2023-03-15T09:18:25.737Z,68.50
2023-03-15T09:21:11.842Z,70.10
2023-03-15T09:23:58.866Z,68.60
2023-03-15T09:26:44.553Z,66.80
2023-03-15T09:29:30.706Z,66.10
2023-03-15T09:32:16.258Z,63.50
2023-03-15T09:35:02.791Z,60.60
2023-03-15T09:37:49.650Z,62.80
2023-03-15T09:40:41.101Z,62.40
2023-03-15T09:44:01.876Z,60.90
2023-03-15T09:46:57.933Z,60.30
2023-03-15T09:49:48.535Z,61.50
2023-03-15T09:52:40.232Z,60.90
2023-03-15T09:55:27.466Z,56.00
2023-03-15T09:58:18.273Z,59.80
2023-03-15T10:01:06.809Z,59.10
2023-03-15T10:03:53.395Z,58.80
2023-03-15T10:06:46.129Z,57.60
2023-03-15T10:09:33.688Z,54.50
2023-03-15T10:12:25.322Z,55.40
2023-03-15T10:15:28.806Z,55.40
2023-03-15T10:18:27.987Z,57.20
2023-03-15T10:21:21.245Z,56.50
2023-03-15T10:24:16.028Z,56.00
2023-03-15T10:27:14.281Z,53.10
2023-03-15T10:30:01.615Z,53.60
2023-03-15T10:32:54.439Z,53.00
2023-03-15T10:35:42.800Z,49.10
2023-03-15T10:38:29.299Z,50.70
2023-03-15T10:41:29.321Z,51.60
2023-03-15T10:44:16.654Z,52.90
2023-03-15T10:47:21.533Z,53.20
2023-03-15T10:50:18.220Z,54.60
2023-03-15T10:53:10.397Z,54.20
2023-03-15T10:56:02.160Z,52.10
2023-03-15T10:59:02.284Z,52.00
2023-03-15T11:02:08.038Z,54.60
2023-03-15T11:05:06.480Z,56.00
2023-03-15T11:07:58.896Z,55.60
2023-03-15T11:10:46.217Z,54.50
2023-03-15T11:13:33.663Z,53.60
2023-03-15T11:16:21.584Z,52.10
2023-03-15T11:19:15.190Z,51.80
2023-03-15T11:22:02.777Z,50.80
2023-03-15T11:24:49.830Z,48.50
2023-03-15T11:27:35.752Z,49.50
2023-03-15T11:30:27.410Z,50.40
2023-03-15T11:33:18.479Z,51.90
2023-03-15T11:36:10.610Z,51.80
2023-03-15T11:39:02.885Z,50.90
2023-03-15T11:41:56.507Z,52.80
2023-03-15T11:44:46.821Z,54.10
2023-03-15T11:47:43.323Z,53.10
2023-03-15T11:50:30.050Z,49.40
2023-03-15T11:53:17.105Z,51.10
2023-03-15T11:56:23.591Z,50.10
2023-03-15T11:59:13.349Z,50.40
2023-03-15T12:02:01.150Z,50.20
2023-03-15T12:04:47.507Z,52.50
2023-03-15T12:07:56.872Z,50.40
2023-03-15T12:10:47.405Z,51.30
2023-03-15T12:13:34.445Z,51.50
2023-03-15T12:16:28.655Z,53.70
2023-03-15T12:19:16.839Z,50.90
2023-03-15T12:22:02.779Z,52.60
2023-03-15T12:24:48.803Z,52.80
2023-03-15T12:27:36.992Z,50.40
2023-03-15T12:30:25.737Z,51.80
2023-03-15T12:33:17.383Z,53.20
2023-03-15T12:36:09.875Z,52.10
2023-03-15T12:39:01.802Z,51.50
2023-03-15T12:41:50.023Z,49.80
2023-03-15T12:44:41.769Z,50.60
2023-03-15T12:47:44.466Z,50.90
2023-03-15T12:50:52.846Z,51.30
2023-03-15T12:53:52.160Z,50.60
2023-03-15T12:56:44.828Z,50.50
2023-03-15T12:59:35.196Z,47.90
2023-03-15T13:02:42.165Z,51.50
2023-03-15T13:05:34.769Z,50.20
2023-03-15T13:08:24.268Z,47.30
2023-03-15T13:11:18.092Z,47.10
2023-03-15T13:14:18.526Z,48.60
2023-03-15T13:17:17.157Z,51.10
2023-03-15T13:20:37.324Z,50.40
2023-03-15T13:23:27.276Z,52.30
2023-03-15T13:26:38.158Z,55.00
2023-03-15T13:29:29.424Z,55.80
2023-03-15T13:32:17.466Z,55.50
2023-03-15T13:35:03.902Z,55.50
2023-03-15T13:37:49.767Z,55.90
2023-03-15T13:40:46.421Z,56.10
2023-03-15T13:43:34.806Z,57.90
2023-03-15T13:46:25.500Z,58.80
2023-03-15T13:49:13.327Z,57.90
2023-03-15T13:52:01.530Z,57.30
2023-03-15T13:54:47.475Z,56.90
2023-03-15T13:57:34.684Z,57.40
2023-03-15T14:00:23.278Z,58.40
2023-03-15T14:03:14.099Z,57.30
2023-03-15T14:06:00.317Z,56.30
2023-03-15T14:08:46.426Z,57.10
2023-03-15T14:11:37.115Z,57.30
2023-03-15T14:14:26.405Z,57.10
2023-03-15T14:17:24.525Z,56.50
2023-03-15T14:20:16.741Z,56.00
2023-03-15T14:23:04.424Z,56.90
2023-03-15T14:25:55.996Z,56.30
2023-03-15T14:28:42.235Z,56.80
2023-03-15T14:31:34.634Z,57.60
2023-03-15T14:34:24.604Z,57.00
2023-03-15T14:37:29.841Z,57.70
2023-03-15T14:40:21.211Z,59.20
2023-03-15T14:43:08.371Z,58.90
2023-03-15T14:45:54.621Z,56.20
2023-03-15T14:48:45.362Z,56.70
2023-03-15T14:51:33.158Z,55.30
2023-03-15T14:54:19.018Z,55.40
2023-03-15T14:57:04.793Z,55.70
2023-03-15T14:59:51.069Z,55.40
2023-03-15T15:02:37.546Z,58.00
2023-03-15T15:05:27.333Z,58.10
2023-03-15T15:08:16.459Z,57.60
2023-03-15T15:11:07.135Z,56.60
2023-03-15T15:13:53.088Z,57.50
2023-03-15T15:16:39.163Z,58.30
2023-03-15T15:19:25.187Z,57.40
2023-03-15T15:22:12.644Z,57.40
2023-03-15T15:24:58.325Z,57.40
2023-03-15T15:27:44.077Z,57.50
2023-03-15T15:30:31.363Z,57.80
2023-03-15T15:33:17.028Z,57.20
2023-03-15T15:36:04.456Z,57.20
2023-03-15T15:38:52.297Z,56.20
2023-03-15T15:41:38.433Z,56.70
2023-03-15T15:44:27.537Z,58.30
2023-03-15T15:47:13.474Z,59.30
2023-03-15T15:49:59.175Z,59.60
2023-03-15T15:52:48.579Z,58.60
2023-03-15T15:55:39.532Z,58.10
2023-03-15T15:58:25.989Z,58.60
2023-03-15T16:01:13.650Z,58.90
2023-03-15T16:03:59.692Z,57.70
2023-03-15T16:06:49.046Z,59.60
2023-03-15T16:09:37.772Z,58.50
2023-03-15T16:12:25.044Z,59.40
2023-03-15T16:15:12.581Z,58.30
2023-03-15T16:17:59.129Z,58.20
2023-03-15T16:20:45.653Z,58.60
2023-03-15T16:23:32.649Z,57.00
2023-03-15T16:26:18.196Z,58.30
2023-03-15T16:29:13.675Z,58.20
2023-03-15T16:32:13.901Z,59.00
2023-03-15T16:35:03.905Z,59.00
2023-03-15T16:37:52.438Z,58.20
2023-03-15T16:40:41.184Z,58.50
2023-03-15T16:43:27.676Z,59.10
2023-03-15T16:46:16.317Z,58.90
2023-03-15T16:49:02.230Z,59.50
2023-03-15T16:51:52.398Z,59.60
2023-03-15T16:54:41.615Z,59.10
2023-03-15T16:57:27.800Z,59.20
2023-03-15T17:00:18.649Z,59.00
2023-03-15T17:03:06.081Z,59.60
2023-03-15T17:05:52.007Z,60.20
2023-03-15T17:08:38.091Z,60.40
2023-03-15T17:11:25.679Z,60.90
2023-03-15T17:14:16.312Z,61.70
2023-03-15T17:17:02.149Z,62.20
2023-03-15T17:19:49.862Z,63.80
2023-03-15T17:22:36.242Z,64.20
2023-03-15T17:25:22.986Z,64.00
2023-03-15T17:28:09.073Z,65.20
2023-03-15T17:31:08.960Z,64.50
2023-03-15T17:34:01.839Z,65.90
2023-03-15T17:36:49.153Z,66.10
2023-03-15T17:39:34.964Z,66.80
2023-03-15T17:42:21.206Z,67.60
2023-03-15T17:45:20.642Z,68.20
2023-03-15T17:48:07.321Z,69.20
2023-03-15T17:50:53.547Z,69.80
2023-03-15T17:53:40.925Z,69.80
2023-03-15T17:56:27.546Z,70.60
2023-03-15T17:59:14.260Z,71.20
2023-03-15T18:02:00.657Z,71.60
2023-03-15T18:04:47.261Z,72.50
2023-03-15T18:07:34.342Z,73.20
2023-03-15T18:10:21.980Z,72.80
2023-03-15T18:13:11.069Z,73.00
2023-03-15T18:15:57.576Z,72.40
2023-03-15T18:18:43.995Z,73.00
2023-03-15T18:21:30.809Z,73.40
2023-03-15T18:24:17.434Z,74.20
2023-03-15T18:27:05.373Z,74.30
2023-03-15T18:29:52.959Z,73.40
2023-03-15T18:32:38.967Z,73.70
2023-03-15T18:35:27.175Z,74.50
2023-03-15T18:38:12.771Z,73.70
2023-03-15T18:40:58.452Z,74.60
2023-03-15T18:43:52.120Z,74.00
2023-03-15T18:46:37.880Z,73.60
2023-03-15T18:49:23.897Z,73.50
2023-03-15T18:52:13.826Z,74.60
2023-03-15T18:54:59.930Z,74.80
2023-03-15T18:57:46.480Z,73.70
2023-03-15T19:00:36.135Z,73.90
2023-03-15T19:03:22.129Z,74.60
2023-03-15T19:06:09.852Z,74.50
2023-03-15T19:08:57.101Z,73.30
2023-03-15T19:11:43.551Z,73.20
2023-03-15T19:14:29.373Z,73.20
2023-03-15T19:17:17.505Z,74.80
2023-03-15T19:20:04.061Z,75.10
2023-03-15T19:22:49.953Z,75.40
2023-03-15T19:25:35.713Z,75.20
2023-03-15T19:28:21.825Z,75.40
2023-03-15T19:31:07.576Z,75.50
2023-03-15T19:33:54.769Z,75.80
2023-03-15T19:36:43.700Z,75.20
2023-03-15T19:39:29.587Z,75.20
2023-03-15T19:42:15.920Z,75.80
2023-03-15T19:45:02.496Z,76.00
2023-03-15T19:47:48.425Z,77.00
2023-03-15T19:50:35.518Z,76.70
2023-03-15T19:53:21.285Z,77.20
2023-03-15T19:56:08.392Z,77.90
2023-03-15T19:58:55.035Z,78.30
2023-03-15T20:01:41.250Z,79.20
2023-03-15T20:04:27.447Z,80.00
2023-03-15T20:07:14.739Z,80.00
2023-03-15T20:10:05.255Z,79.60
2023-03-15T20:12:58.915Z,79.60
2023-03-15T20:15:44.956Z,80.40
2023-03-15T20:18:31.484Z,79.60
2023-03-15T20:21:17.384Z,79.80
2023-03-15T20:24:06.749Z,80.00
2023-03-15T20:26:52.802Z,80.90
2023-03-15T20:29:38.321Z,80.20
2023-03-15T20:32:23.966Z,81.00
2023-03-15T20:35:09.898Z,81.80
2023-03-15T20:37:56.290Z,81.90
2023-03-15T20:40:44.100Z,81.80
2023-03-15T20:43:29.622Z,82.00
2023-03-15T20:46:16.747Z,82.80
2023-03-15T20:49:02.495Z,83.20
2023-03-15T20:51:48.056Z,83.00
2023-03-15T20:54:34.103Z,82.70
2023-03-15T20:57:21.924Z,82.60
2023-03-15T21:00:12.709Z,83.10
2023-03-15T21:02:58.985Z,83.00
2023-03-15T21:05:46.296Z,82.60
2023-03-15T21:08:33.791Z,83.00
2023-03-15T21:11:20.597Z,82.50
2023-03-15T21:14:08.686Z,82.90
2023-03-15T21:17:02.182Z,83.60
2023-03-15T21:19:48.926Z,84.80
2023-03-15T21:22:34.968Z,84.80
2023-03-15T21:25:21.105Z,84.80
2023-03-15T21:28:07.673Z,85.00
2023-03-15T21:30:55.952Z,84.80
2023-03-15T21:33:53.480Z,84.70
2023-03-15T21:36:39.850Z,85.60
2023-03-15T21:39:26.353Z,84.60
2023-03-15T21:42:12.087Z,85.00
2023-03-15T21:45:00.048Z,85.30
2023-03-15T21:47:47.602Z,85.50
2023-03-15T21:50:33.828Z,85.60
2023-03-15T21:53:19.337Z,85.10
2023-03-15T21:56:05.181Z,85.30
2023-03-15T21:58:52.611Z,85.10
2023-03-15T22:01:37.961Z,86.60
2023-03-15T22:04:25.167Z,85.10
2023-03-15T22:07:11.467Z,86.30
2023-03-15T22:09:57.146Z,85.40
2023-03-15T22:12:43.409Z,86.00
2023-03-15T22:15:29.389Z,85.80
2023-03-15T22:18:14.976Z,86.50
2023-03-15T22:21:01.940Z,87.60
2023-03-15T22:23:47.423Z,87.40
2023-03-15T22:26:33.668Z,87.50
2023-03-15T22:29:19.591Z,87.80
2023-03-15T22:32:05.901Z,88.00
2023-03-15T22:34:51.838Z,88.40
2023-03-15T22:37:38.863Z,88.20
2023-03-15T22:40:27.252Z,89.80
2023-03-15T22:43:13.576Z,89.40
2023-03-15T22:45:59.439Z,89.60
2023-03-15T22:48:44.910Z,89.40
2023-03-15T22:51:34.486Z,89.40
2023-03-15T22:54:27.275Z,89.80
2023-03-15T22:57:15.744Z,90.20
2023-03-15T23:00:02.031Z,90.50
2023-03-15T23:02:47.794Z,90.70
2023-03-15T23:05:33.865Z,90.50
2023-03-15T23:08:19.525Z,90.80
2023-03-15T23:11:06.472Z,91.40
2023-03-15T23:13:52.658Z,91.10
2023-03-15T23:16:38.434Z,90.80
2023-03-15T23:19:23.914Z,90.70
2023-03-15T23:22:09.997Z,91.00
2023-03-15T23:24:58.105Z,90.70
2023-03-15T23:27:45.638Z,90.80
2023-03-15T23:30:35.107Z,91.30
2023-03-15T23:33:21.032Z,91.60
2023-03-15T23:36:07.338Z,91.80
2023-03-15T23:38:53.310Z,92.00
2023-03-15T23:41:39.111Z,92.10
2023-03-15T23:44:26.137Z,92.20
2023-03-15T23:47:12.333Z,92.40
2023-03-15T23:49:57.978Z,92.40
2023-03-15T23:52:43.366Z,92.90
2023-03-15T23:55:29.316Z,93.00
2023-03-15T23:58:14.935Z,93.30
